sensor_id;sensor_type;location;lat;lon;timestamp;P1;durP1;ratioP1;P2;durP2;ratioP2
69937;SDS011;57248;47.320;15.998;2023-08-12T00:00:03;5.97;;;3.07;;
69937;SDS011;57248;47.320;15.998;2023-08-12T00:02:45;5.25;;;2.90;;
69937;SDS011;57248;47.320;15.998;2023-08-12T00:05:17;5.95;;;3.28;;
69937;SDS011;57248;47.320;15.998;2023-08-12T00:07:49;5.57;;;3.00;;
69937;SDS011;57248;47.320;15.998;2023-08-12T00:10:21;6.35;;;3.40;;
69937;SDS011;57248;47.320;15.998;2023-08-12T00:12:53;6.67;;;2.90;;
69937;SDS011;57248;47.320;15.998;2023-08-12T00:15:25;6.90;;;3.25;;
69937;SDS011;57248;47.320;15.998;2023-08-12T00:17:57;7.15;;;3.38;;
69937;SDS011;57248;47.320;15.998;2023-08-12T00:20:29;6.38;;;2.90;;
69937;SDS011;57248;47.320;15.998;2023-08-12T00:23:02;5.50;;;3.08;;
69937;SDS011;57248;47.320;15.998;2023-08-12T00:25:35;6.20;;;2.67;;
69937;SDS011;57248;47.320;15.998;2023-08-12T00:28:00;5.97;;;3.00;;
69937;SDS011;57248;47.320;15.998;2023-08-12T00:30:34;6.30;;;3.10;;
69937;SDS011;57248;47.320;15.998;2023-08-12T00:33:07;7.38;;;3.15;;
69937;SDS011;57248;47.320;15.998;2023-08-12T00:35:45;6.18;;;2.75;;
69937;SDS011;57248;47.320;15.998;2023-08-12T00:38:18;5.57;;;2.85;;
69937;SDS011;57248;47.320;15.998;2023-08-12T00:40:57;6.07;;;2.80;;
69937;SDS011;57248;47.320;15.998;2023-08-12T00:43:30;6.87;;;2.93;;
69937;SDS011;57248;47.320;15.998;2023-08-12T00:46:02;6.43;;;3.40;;
69937;SDS011;57248;47.320;15.998;2023-08-12T00:48:35;5.50;;;3.10;;
69937;SDS011;57248;47.320;15.998;2023-08-12T00:51:08;5.72;;;2.90;;
69937;SDS011;57248;47.320;15.998;2023-08-12T00:53:41;5.60;;;3.03;;
69937;SDS011;57248;47.320;15.998;2023-08-12T00:56:14;5.77;;;3.10;;
69937;SDS011;57248;47.320;15.998;2023-08-12T00:58:46;7.10;;;3.45;;
69937;SDS011;57248;47.320;15.998;2023-08-12T01:01:18;6.07;;;3.13;;
69937;SDS011;57248;47.320;15.998;2023-08-12T01:03:53;5.20;;;2.75;;
69937;SDS011;57248;47.320;15.998;2023-08-12T01:06:20;5.35;;;3.15;;
69937;SDS011;57248;47.320;15.998;2023-08-12T01:08:52;6.70;;;3.10;;
69937;SDS011;57248;47.320;15.998;2023-08-12T01:11:29;5.78;;;3.15;;
69937;SDS011;57248;47.320;15.998;2023-08-12T01:16:39;6.65;;;3.15;;
69937;SDS011;57248;47.320;15.998;2023-08-12T01:19:33;5.45;;;2.88;;
69937;SDS011;57248;47.320;15.998;2023-08-12T01:22:10;7.50;;;3.27;;
69937;SDS011;57248;47.320;15.998;2023-08-12T01:24:44;6.38;;;3.42;;
69937;SDS011;57248;47.320;15.998;2023-08-12T01:27:10;6.60;;;3.50;;
69937;SDS011;57248;47.320;15.998;2023-08-12T01:29:44;7.38;;;3.00;;
69937;SDS011;57248;47.320;15.998;2023-08-12T01:35:05;6.05;;;2.70;;
69937;SDS011;57248;47.320;15.998;2023-08-12T01:37:45;7.82;;;2.83;;
69937;SDS011;57248;47.320;15.998;2023-08-12T01:40:20;4.88;;;2.78;;
69937;SDS011;57248;47.320;15.998;2023-08-12T01:42:54;6.55;;;3.20;;
69937;SDS011;57248;47.320;15.998;2023-08-12T01:45:26;6.33;;;3.00;;
69937;SDS011;57248;47.320;15.998;2023-08-12T01:47:58;5.57;;;3.10;;
69937;SDS011;57248;47.320;15.998;2023-08-12T01:50:30;6.80;;;3.50;;
69937;SDS011;57248;47.320;15.998;2023-08-12T01:53:02;7.97;;;3.45;;
69937;SDS011;57248;47.320;15.998;2023-08-12T01:55:34;7.07;;;3.67;;
69937;SDS011;57248;47.320;15.998;2023-08-12T01:57:59;7.03;;;3.00;;
69937;SDS011;57248;47.320;15.998;2023-08-12T02:00:31;5.93;;;3.00;;
69937;SDS011;57248;47.320;15.998;2023-08-12T02:03:04;5.43;;;3.20;;
69937;SDS011;57248;47.320;15.998;2023-08-12T02:05:36;6.10;;;3.23;;
69937;SDS011;57248;47.320;15.998;2023-08-12T02:08:13;6.53;;;2.80;;
69937;SDS011;57248;47.320;15.998;2023-08-12T02:10:45;6.00;;;3.00;;
69937;SDS011;57248;47.320;15.998;2023-08-12T02:13:17;8.32;;;3.63;;
69937;SDS011;57248;47.320;15.998;2023-08-12T02:15:49;6.90;;;3.25;;
69937;SDS011;57248;47.320;15.998;2023-08-12T02:18:21;5.50;;;3.23;;
69937;SDS011;57248;47.320;15.998;2023-08-12T02:20:54;6.05;;;3.33;;
69937;SDS011;57248;47.320;15.998;2023-08-12T02:23:19;7.03;;;3.10;;
69937;SDS011;57248;47.320;15.998;2023-08-12T02:25:51;5.93;;;3.20;;
69937;SDS011;57248;47.320;15.998;2023-08-12T02:28:25;8.13;;;3.42;;
69937;SDS011;57248;47.320;15.998;2023-08-12T02:30:58;6.38;;;3.13;;
69937;SDS011;57248;47.320;15.998;2023-08-12T02:33:30;5.40;;;2.90;;
69937;SDS011;57248;47.320;15.998;2023-08-12T02:36:02;5.77;;;3.37;;
69937;SDS011;57248;47.320;15.998;2023-08-12T02:38:40;6.32;;;3.22;;
69937;SDS011;57248;47.320;15.998;2023-08-12T02:41:13;5.32;;;2.90;;
69937;SDS011;57248;47.320;15.998;2023-08-12T02:43:45;8.52;;;3.03;;
69937;SDS011;57248;47.320;15.998;2023-08-12T02:46:17;5.25;;;2.70;;
69937;SDS011;57248;47.320;15.998;2023-08-12T02:48:50;6.37;;;2.93;;
69937;SDS011;57248;47.320;15.998;2023-08-12T02:51:22;8.38;;;3.58;;
69937;SDS011;57248;47.320;15.998;2023-08-12T02:53:54;7.80;;;3.60;;
69937;SDS011;57248;47.320;15.998;2023-08-12T02:56:26;7.28;;;3.00;;
69937;SDS011;57248;47.320;15.998;2023-08-12T02:58:58;7.07;;;3.10;;
69937;SDS011;57248;47.320;15.998;2023-08-12T03:01:30;6.00;;;3.20;;
69937;SDS011;57248;47.320;15.998;2023-08-12T03:04:02;7.32;;;3.63;;
69937;SDS011;57248;47.320;15.998;2023-08-12T03:06:34;6.82;;;3.65;;
69937;SDS011;57248;47.320;15.998;2023-08-12T03:09:06;6.75;;;3.30;;
69937;SDS011;57248;47.320;15.998;2023-08-12T03:11:38;6.53;;;3.05;;
69937;SDS011;57248;47.320;15.998;2023-08-12T03:14:10;6.73;;;3.00;;
69937;SDS011;57248;47.320;15.998;2023-08-12T03:16:42;6.25;;;3.20;;
69937;SDS011;57248;47.320;15.998;2023-08-12T03:19:07;7.15;;;3.30;;
69937;SDS011;57248;47.320;15.998;2023-08-12T03:21:40;7.60;;;3.63;;
69937;SDS011;57248;47.320;15.998;2023-08-12T03:24:13;5.93;;;2.83;;
69937;SDS011;57248;47.320;15.998;2023-08-12T03:26:46;5.88;;;3.20;;
69937;SDS011;57248;47.320;15.998;2023-08-12T03:29:19;6.00;;;3.03;;
69937;SDS011;57248;47.320;15.998;2023-08-12T03:31:52;6.75;;;3.25;;
69937;SDS011;57248;47.320;15.998;2023-08-12T03:34:27;6.18;;;3.20;;
69937;SDS011;57248;47.320;15.998;2023-08-12T03:37:01;7.63;;;3.43;;
69937;SDS011;57248;47.320;15.998;2023-08-12T03:39:41;6.13;;;3.10;;
69937;SDS011;57248;47.320;15.998;2023-08-12T03:42:14;7.45;;;3.20;;
69937;SDS011;57248;47.320;15.998;2023-08-12T03:44:48;5.97;;;3.10;;
69937;SDS011;57248;47.320;15.998;2023-08-12T03:47:21;5.60;;;2.78;;
69937;SDS011;57248;47.320;15.998;2023-08-12T03:49:55;5.70;;;2.97;;
69937;SDS011;57248;47.320;15.998;2023-08-12T03:52:31;5.88;;;2.90;;
69937;SDS011;57248;47.320;15.998;2023-08-12T03:55:03;7.60;;;3.20;;
69937;SDS011;57248;47.320;15.998;2023-08-12T03:57:36;5.32;;;2.70;;
69937;SDS011;57248;47.320;15.998;2023-08-12T04:00:08;4.43;;;2.47;;
69937;SDS011;57248;47.320;15.998;2023-08-12T04:02:39;6.83;;;2.73;;
69937;SDS011;57248;47.320;15.998;2023-08-12T04:05:12;5.53;;;2.70;;
69937;SDS011;57248;47.320;15.998;2023-08-12T04:07:44;6.25;;;2.97;;
69937;SDS011;57248;47.320;15.998;2023-08-12T04:10:16;6.35;;;3.40;;
69937;SDS011;57248;47.320;15.998;2023-08-12T04:12:49;6.43;;;2.80;;
69937;SDS011;57248;47.320;15.998;2023-08-12T04:15:14;7.37;;;2.80;;
69937;SDS011;57248;47.320;15.998;2023-08-12T04:17:47;5.65;;;2.80;;
69937;SDS011;57248;47.320;15.998;2023-08-12T04:20:19;6.33;;;2.90;;
69937;SDS011;57248;47.320;15.998;2023-08-12T04:22:51;6.38;;;2.80;;
69937;SDS011;57248;47.320;15.998;2023-08-12T04:25:25;5.82;;;2.70;;
69937;SDS011;57248;47.320;15.998;2023-08-12T04:27:57;6.47;;;2.97;;
69937;SDS011;57248;47.320;15.998;2023-08-12T04:30:32;7.18;;;3.03;;
69937;SDS011;57248;47.320;15.998;2023-08-12T04:33:04;5.70;;;2.73;;
69937;SDS011;57248;47.320;15.998;2023-08-12T04:35:37;6.03;;;2.80;;
69937;SDS011;57248;47.320;15.998;2023-08-12T04:38:18;6.68;;;2.80;;
69937;SDS011;57248;47.320;15.998;2023-08-12T04:40:54;6.30;;;2.50;;
69937;SDS011;57248;47.320;15.998;2023-08-12T04:43:27;7.97;;;2.97;;
69937;SDS011;57248;47.320;15.998;2023-08-12T04:45:59;6.50;;;3.00;;
69937;SDS011;57248;47.320;15.998;2023-08-12T04:48:25;5.97;;;3.33;;
69937;SDS011;57248;47.320;15.998;2023-08-12T04:50:57;6.20;;;3.75;;
69937;SDS011;57248;47.320;15.998;2023-08-12T04:53:33;6.30;;;3.63;;
69937;SDS011;57248;47.320;15.998;2023-08-12T04:56:06;7.25;;;3.97;;
69937;SDS011;57248;47.320;15.998;2023-08-12T04:58:40;7.75;;;3.90;;
69937;SDS011;57248;47.320;15.998;2023-08-12T05:01:12;7.20;;;4.10;;
69937;SDS011;57248;47.320;15.998;2023-08-12T05:03:45;9.32;;;3.30;;
69937;SDS011;57248;47.320;15.998;2023-08-12T05:06:18;6.27;;;3.67;;
69937;SDS011;57248;47.320;15.998;2023-08-12T05:08:50;6.90;;;3.53;;
69937;SDS011;57248;47.320;15.998;2023-08-12T05:11:15;7.43;;;3.87;;
69937;SDS011;57248;47.320;15.998;2023-08-12T05:13:48;6.10;;;3.50;;
69937;SDS011;57248;47.320;15.998;2023-08-12T05:16:20;7.70;;;3.42;;
69937;SDS011;57248;47.320;15.998;2023-08-12T05:18:52;6.68;;;3.40;;
69937;SDS011;57248;47.320;15.998;2023-08-12T05:21:24;5.32;;;3.08;;
69937;SDS011;57248;47.320;15.998;2023-08-12T05:23:56;5.33;;;3.20;;
69937;SDS011;57248;47.320;15.998;2023-08-12T05:26:30;7.38;;;3.50;;
69937;SDS011;57248;47.320;15.998;2023-08-12T05:29:02;6.50;;;3.22;;
69937;SDS011;57248;47.320;15.998;2023-08-12T05:31:34;5.38;;;3.22;;
69937;SDS011;57248;47.320;15.998;2023-08-12T05:34:06;4.97;;;2.90;;
69937;SDS011;57248;47.320;15.998;2023-08-12T05:36:38;6.13;;;3.67;;
69937;SDS011;57248;47.320;15.998;2023-08-12T05:39:17;7.55;;;3.10;;
69937;SDS011;57248;47.320;15.998;2023-08-12T05:41:43;4.95;;;2.90;;
69937;SDS011;57248;47.320;15.998;2023-08-12T05:44:15;6.43;;;3.10;;
69937;SDS011;57248;47.320;15.998;2023-08-12T05:46:47;4.90;;;2.90;;
69937;SDS011;57248;47.320;15.998;2023-08-12T05:49:20;5.13;;;2.90;;
69937;SDS011;57248;47.320;15.998;2023-08-12T05:51:53;6.38;;;2.78;;
69937;SDS011;57248;47.320;15.998;2023-08-12T05:54:25;5.18;;;3.10;;
69937;SDS011;57248;47.320;15.998;2023-08-12T05:56:57;6.30;;;3.10;;
69937;SDS011;57248;47.320;15.998;2023-08-12T05:59:30;4.90;;;3.03;;
69937;SDS011;57248;47.320;15.998;2023-08-12T06:02:02;5.93;;;3.30;;
69937;SDS011;57248;47.320;15.998;2023-08-12T06:04:34;9.18;;;3.35;;
69937;SDS011;57248;47.320;15.998;2023-08-12T06:07:07;41.03;;;18.83;;
69937;SDS011;57248;47.320;15.998;2023-08-12T06:09:39;65.45;;;28.50;;
69937;SDS011;57248;47.320;15.998;2023-08-12T06:12:11;71.75;;;31.45;;
69937;SDS011;57248;47.320;15.998;2023-08-12T06:14:43;40.10;;;19.50;;
69937;SDS011;57248;47.320;15.998;2023-08-12T06:17:15;4.88;;;3.10;;
69937;SDS011;57248;47.320;15.998;2023-08-12T06:19:47;4.78;;;3.00;;
69937;SDS011;57248;47.320;15.998;2023-08-12T06:22:19;7.05;;;2.70;;
69937;SDS011;57248;47.320;15.998;2023-08-12T06:24:51;4.97;;;3.00;;
69937;SDS011;57248;47.320;15.998;2023-08-12T06:27:23;5.00;;;2.80;;
69937;SDS011;57248;47.320;15.998;2023-08-12T06:29:55;5.35;;;3.13;;
69937;SDS011;57248;47.320;15.998;2023-08-12T06:32:27;4.65;;;2.88;;
69937;SDS011;57248;47.320;15.998;2023-08-12T06:34:59;4.68;;;2.72;;
69937;SDS011;57248;47.320;15.998;2023-08-12T06:37:38;4.38;;;2.63;;
69937;SDS011;57248;47.320;15.998;2023-08-12T06:40:11;5.10;;;2.67;;
69937;SDS011;57248;47.320;15.998;2023-08-12T06:42:43;23.73;;;11.43;;
69937;SDS011;57248;47.320;15.998;2023-08-12T06:45:15;28.08;;;13.75;;
69937;SDS011;57248;47.320;15.998;2023-08-12T06:47:47;29.85;;;16.02;;
69937;SDS011;57248;47.320;15.998;2023-08-12T06:50:19;17.00;;;9.30;;
69937;SDS011;57248;47.320;15.998;2023-08-12T06:52:51;10.70;;;5.57;;
69937;SDS011;57248;47.320;15.998;2023-08-12T06:55:23;13.00;;;6.82;;
69937;SDS011;57248;47.320;15.998;2023-08-12T06:57:55;12.15;;;6.40;;
69937;SDS011;57248;47.320;15.998;2023-08-12T07:00:27;7.15;;;4.53;;
69937;SDS011;57248;47.320;15.998;2023-08-12T07:02:59;7.80;;;3.97;;
69937;SDS011;57248;47.320;15.998;2023-08-12T07:05:24;5.83;;;3.83;;
69937;SDS011;57248;47.320;15.998;2023-08-12T07:07:57;4.43;;;2.95;;
69937;SDS011;57248;47.320;15.998;2023-08-12T07:10:29;6.23;;;4.47;;
69937;SDS011;57248;47.320;15.998;2023-08-12T07:13:01;6.35;;;4.20;;
69937;SDS011;57248;47.320;15.998;2023-08-12T07:15:26;7.07;;;5.23;;
69937;SDS011;57248;47.320;15.998;2023-08-12T07:17:58;5.07;;;3.88;;
69937;SDS011;57248;47.320;15.998;2023-08-12T07:20:26;6.77;;;4.70;;
69937;SDS011;57248;47.320;15.998;2023-08-12T07:22:58;4.82;;;3.63;;
69937;SDS011;57248;47.320;15.998;2023-08-12T07:25:39;6.90;;;4.72;;
69937;SDS011;57248;47.320;15.998;2023-08-12T07:28:26;6.38;;;5.30;;
69937;SDS011;57248;47.320;15.998;2023-08-12T07:31:00;5.32;;;4.75;;
69937;SDS011;57248;47.320;15.998;2023-08-12T07:33:33;5.70;;;4.87;;
69937;SDS011;57248;47.320;15.998;2023-08-12T07:36:05;11.65;;;4.80;;
69937;SDS011;57248;47.320;15.998;2023-08-12T07:38:37;7.07;;;5.13;;
69937;SDS011;57248;47.320;15.998;2023-08-12T07:41:16;6.20;;;5.70;;
69937;SDS011;57248;47.320;15.998;2023-08-12T07:43:48;6.60;;;6.00;;
69937;SDS011;57248;47.320;15.998;2023-08-12T07:46:21;6.57;;;5.90;;
69937;SDS011;57248;47.320;15.998;2023-08-12T07:48:53;8.00;;;6.07;;
69937;SDS011;57248;47.320;15.998;2023-08-12T07:51:26;6.78;;;6.20;;
69937;SDS011;57248;47.320;15.998;2023-08-12T07:53:59;7.35;;;6.80;;
69937;SDS011;57248;47.320;15.998;2023-08-12T07:56:31;6.85;;;6.25;;
69937;SDS011;57248;47.320;15.998;2023-08-12T07:59:03;6.17;;;5.63;;
69937;SDS011;57248;47.320;15.998;2023-08-12T08:01:35;8.98;;;6.25;;
69937;SDS011;57248;47.320;15.998;2023-08-12T08:04:07;6.40;;;5.80;;
69937;SDS011;57248;47.320;15.998;2023-08-12T08:06:39;6.50;;;5.90;;
69937;SDS011;57248;47.320;15.998;2023-08-12T08:09:11;6.05;;;5.55;;
69937;SDS011;57248;47.320;15.998;2023-08-12T08:11:36;7.20;;;5.33;;
69937;SDS011;57248;47.320;15.998;2023-08-12T08:14:09;6.65;;;5.75;;
69937;SDS011;57248;47.320;15.998;2023-08-12T08:16:41;6.03;;;5.50;;
69937;SDS011;57248;47.320;15.998;2023-08-12T08:19:14;5.90;;;5.07;;
69937;SDS011;57248;47.320;15.998;2023-08-12T08:21:46;5.85;;;5.35;;
69937;SDS011;57248;47.320;15.998;2023-08-12T08:24:18;6.32;;;5.82;;
69937;SDS011;57248;47.320;15.998;2023-08-12T08:26:43;6.63;;;6.00;;
69937;SDS011;57248;47.320;15.998;2023-08-12T08:29:18;6.40;;;5.80;;
69937;SDS011;57248;47.320;15.998;2023-08-12T08:31:50;6.05;;;5.55;;
69937;SDS011;57248;47.320;15.998;2023-08-12T08:34:22;6.67;;;6.07;;
69937;SDS011;57248;47.320;15.998;2023-08-12T08:36:47;7.53;;;6.00;;
69937;SDS011;57248;47.320;15.998;2023-08-12T08:39:19;6.10;;;5.50;;
69937;SDS011;57248;47.320;15.998;2023-08-12T08:41:52;6.60;;;6.07;;
69937;SDS011;57248;47.320;15.998;2023-08-12T08:44:19;6.55;;;5.55;;
69937;SDS011;57248;47.320;15.998;2023-08-12T08:46:54;6.60;;;6.10;;
69937;SDS011;57248;47.320;15.998;2023-08-12T08:49:27;7.40;;;6.68;;
69937;SDS011;57248;47.320;15.998;2023-08-12T08:52:00;6.50;;;5.90;;
69937;SDS011;57248;47.320;15.998;2023-08-12T08:54:33;6.97;;;6.38;;
69937;SDS011;57248;47.320;15.998;2023-08-12T08:57:06;7.93;;;7.30;;
69937;SDS011;57248;47.320;15.998;2023-08-12T08:59:32;7.90;;;7.20;;
69937;SDS011;57248;47.320;15.998;2023-08-12T09:02:04;7.60;;;6.50;;
69937;SDS011;57248;47.320;15.998;2023-08-12T09:04:38;7.57;;;6.95;;
69937;SDS011;57248;47.320;15.998;2023-08-12T09:07:04;9.07;;;8.25;;
69937;SDS011;57248;47.320;15.998;2023-08-12T09:09:38;8.23;;;7.53;;
69937;SDS011;57248;47.320;15.998;2023-08-12T09:12:13;9.25;;;8.55;;
69937;SDS011;57248;47.320;15.998;2023-08-12T09:14:40;9.37;;;8.47;;
69937;SDS011;57248;47.320;15.998;2023-08-12T09:17:14;8.82;;;8.15;;
69937;SDS011;57248;47.320;15.998;2023-08-12T09:19:47;8.43;;;7.63;;
69937;SDS011;57248;47.320;15.998;2023-08-12T09:22:19;7.57;;;6.97;;
69937;SDS011;57248;47.320;15.998;2023-08-12T09:24:57;6.68;;;5.88;;
69937;SDS011;57248;47.320;15.998;2023-08-12T09:27:30;7.60;;;7.00;;
69937;SDS011;57248;47.320;15.998;2023-08-12T09:30:03;7.22;;;6.60;;
69937;SDS011;57248;47.320;15.998;2023-08-12T09:32:36;8.75;;;8.05;;
69937;SDS011;57248;47.320;15.998;2023-08-12T09:35:17;7.75;;;7.05;;
69937;SDS011;57248;47.320;15.998;2023-08-12T09:37:58;7.20;;;6.50;;
69937;SDS011;57248;47.320;15.998;2023-08-12T09:40:30;7.07;;;6.20;;
69937;SDS011;57248;47.320;15.998;2023-08-12T09:43:04;8.10;;;7.50;;
69937;SDS011;57248;47.320;15.998;2023-08-12T09:45:38;9.50;;;8.80;;
69937;SDS011;57248;47.320;15.998;2023-08-12T09:48:10;9.15;;;8.50;;
69937;SDS011;57248;47.320;15.998;2023-08-12T09:50:42;9.30;;;8.43;;
69937;SDS011;57248;47.320;15.998;2023-08-12T09:53:14;8.67;;;7.87;;
69937;SDS011;57248;47.320;15.998;2023-08-12T09:55:40;9.02;;;8.35;;
69937;SDS011;57248;47.320;15.998;2023-08-12T09:58:13;10.40;;;9.50;;
69937;SDS011;57248;47.320;15.998;2023-08-12T10:00:53;9.18;;;8.57;;
69937;SDS011;57248;47.320;15.998;2023-08-12T10:03:26;8.40;;;7.60;;
69937;SDS011;57248;47.320;15.998;2023-08-12T10:06:00;8.00;;;6.93;;
69937;SDS011;57248;47.320;15.998;2023-08-12T10:08:33;7.90;;;7.20;;
69937;SDS011;57248;47.320;15.998;2023-08-12T10:11:00;8.10;;;7.40;;
69937;SDS011;57248;47.320;15.998;2023-08-12T10:13:33;8.95;;;8.10;;
69937;SDS011;57248;47.320;15.998;2023-08-12T10:16:06;7.90;;;7.30;;
69937;SDS011;57248;47.320;15.998;2023-08-12T10:18:41;7.63;;;6.93;;
69937;SDS011;57248;47.320;15.998;2023-08-12T10:21:14;7.05;;;6.55;;
69937;SDS011;57248;47.320;15.998;2023-08-12T10:23:46;7.00;;;6.40;;
69937;SDS011;57248;47.320;15.998;2023-08-12T10:26:18;6.30;;;5.70;;
69937;SDS011;57248;47.320;15.998;2023-08-12T10:28:44;6.63;;;6.13;;
69937;SDS011;57248;47.320;15.998;2023-08-12T10:31:16;6.75;;;6.25;;
69937;SDS011;57248;47.320;15.998;2023-08-12T10:33:50;8.48;;;6.65;;
69937;SDS011;57248;47.320;15.998;2023-08-12T10:36:29;7.30;;;6.80;;
69937;SDS011;57248;47.320;15.998;2023-08-12T10:39:07;7.68;;;7.07;;
69937;SDS011;57248;47.320;15.998;2023-08-12T10:41:51;8.07;;;7.47;;
69937;SDS011;57248;47.320;15.998;2023-08-12T10:45:12;8.20;;;7.60;;
69937;SDS011;57248;47.320;15.998;2023-08-12T10:47:22;8.25;;;7.65;;
69937;SDS011;57248;47.320;15.998;2023-08-12T10:49:48;9.20;;;8.57;;
69937;SDS011;57248;47.320;15.998;2023-08-12T10:52:27;9.10;;;8.48;;
69937;SDS011;57248;47.320;15.998;2023-08-12T10:55:20;8.90;;;8.20;;
69937;SDS011;57248;47.320;15.998;2023-08-12T10:57:54;10.30;;;9.60;;
69937;SDS011;57248;47.320;15.998;2023-08-12T11:00:31;8.52;;;7.82;;
69937;SDS011;57248;47.320;15.998;2023-08-12T11:03:03;7.83;;;7.23;;
69937;SDS011;57248;47.320;15.998;2023-08-12T11:05:37;8.57;;;7.88;;
69937;SDS011;57248;47.320;15.998;2023-08-12T11:08:11;8.20;;;7.60;;
69937;SDS011;57248;47.320;15.998;2023-08-12T11:10:45;9.23;;;8.52;;
69937;SDS011;57248;47.320;15.998;2023-08-12T11:13:17;11.32;;;10.63;;
69937;SDS011;57248;47.320;15.998;2023-08-12T11:15:50;9.23;;;8.63;;
69937;SDS011;57248;47.320;15.998;2023-08-12T11:18:22;9.30;;;8.60;;
69937;SDS011;57248;47.320;15.998;2023-08-12T11:20:54;10.95;;;10.15;;
69937;SDS011;57248;47.320;15.998;2023-08-12T11:23:27;12.52;;;11.63;;
69937;SDS011;57248;47.320;15.998;2023-08-12T11:26:01;10.43;;;9.63;;
69937;SDS011;57248;47.320;15.998;2023-08-12T11:28:34;9.60;;;8.90;;
69937;SDS011;57248;47.320;15.998;2023-08-12T11:31:09;8.75;;;8.05;;
69937;SDS011;57248;47.320;15.998;2023-08-12T11:33:42;8.25;;;7.65;;
69937;SDS011;57248;47.320;15.998;2023-08-12T11:36:22;8.27;;;7.60;;
69937;SDS011;57248;47.320;15.998;2023-08-12T11:38:56;10.10;;;9.40;;
69937;SDS011;57248;47.320;15.998;2023-08-12T11:41:35;8.60;;;8.00;;
69937;SDS011;57248;47.320;15.998;2023-08-12T11:44:11;8.68;;;8.02;;
69937;SDS011;57248;47.320;15.998;2023-08-12T11:47:03;8.30;;;7.60;;
69937;SDS011;57248;47.320;15.998;2023-08-12T11:49:35;9.32;;;8.63;;
69937;SDS011;57248;47.320;15.998;2023-08-12T11:52:00;9.27;;;8.67;;
69937;SDS011;57248;47.320;15.998;2023-08-12T11:54:33;8.27;;;7.47;;
69937;SDS011;57248;47.320;15.998;2023-08-12T11:57:06;8.80;;;8.20;;
69937;SDS011;57248;47.320;15.998;2023-08-12T11:59:38;9.37;;;8.77;;
69937;SDS011;57248;47.320;15.998;2023-08-12T12:02:11;8.90;;;8.30;;
69937;SDS011;57248;47.320;15.998;2023-08-12T12:04:45;8.40;;;7.80;;
69937;SDS011;57248;47.320;15.998;2023-08-12T12:07:24;9.75;;;8.95;;
69937;SDS011;57248;47.320;15.998;2023-08-12T12:09:57;9.73;;;8.95;;
69937;SDS011;57248;47.320;15.998;2023-08-12T12:12:30;8.70;;;8.00;;
69937;SDS011;57248;47.320;15.998;2023-08-12T12:15:07;8.55;;;7.85;;
69937;SDS011;57248;47.320;15.998;2023-08-12T12:17:39;7.80;;;7.20;;
69937;SDS011;57248;47.320;15.998;2023-08-12T12:20:12;8.45;;;7.85;;
69937;SDS011;57248;47.320;15.998;2023-08-12T12:22:40;27.88;;;8.48;;
69937;SDS011;57248;47.320;15.998;2023-08-12T12:25:15;11.37;;;7.07;;
69937;SDS011;57248;47.320;15.998;2023-08-12T12:27:50;12.63;;;7.28;;
69937;SDS011;57248;47.320;15.998;2023-08-12T12:30:25;7.20;;;6.50;;
69937;SDS011;57248;47.320;15.998;2023-08-12T12:32:57;6.35;;;5.75;;
69937;SDS011;57248;47.320;15.998;2023-08-12T12:35:30;8.20;;;7.40;;
69937;SDS011;57248;47.320;15.998;2023-08-12T12:38:10;8.10;;;7.50;;
69937;SDS011;57248;47.320;15.998;2023-08-12T12:40:42;7.70;;;7.07;;
69937;SDS011;57248;47.320;15.998;2023-08-12T12:43:15;8.45;;;7.85;;
69937;SDS011;57248;47.320;15.998;2023-08-12T12:45:47;9.27;;;8.57;;
69937;SDS011;57248;47.320;15.998;2023-08-12T12:48:20;9.68;;;8.98;;
69937;SDS011;57248;47.320;15.998;2023-08-12T12:50:52;9.63;;;8.90;;
69937;SDS011;57248;47.320;15.998;2023-08-12T12:53:25;8.50;;;7.80;;
69937;SDS011;57248;47.320;15.998;2023-08-12T12:55:57;9.45;;;8.73;;
69937;SDS011;57248;47.320;15.998;2023-08-12T12:58:35;8.35;;;7.60;;
69937;SDS011;57248;47.320;15.998;2023-08-12T13:01:02;8.40;;;7.70;;
69937;SDS011;57248;47.320;15.998;2023-08-12T13:03:35;7.43;;;6.80;;
69937;SDS011;57248;47.320;15.998;2023-08-12T13:06:00;7.30;;;6.60;;
69937;SDS011;57248;47.320;15.998;2023-08-12T13:08:33;7.03;;;6.43;;
69937;SDS011;57248;47.320;15.998;2023-08-12T13:11:05;8.00;;;7.30;;
69937;SDS011;57248;47.320;15.998;2023-08-12T13:13:37;9.65;;;8.75;;
69937;SDS011;57248;47.320;15.998;2023-08-12T13:16:12;7.90;;;7.20;;
69937;SDS011;57248;47.320;15.998;2023-08-12T13:18:45;8.55;;;7.70;;
69937;SDS011;57248;47.320;15.998;2023-08-12T13:21:17;7.63;;;6.87;;
69937;SDS011;57248;47.320;15.998;2023-08-12T13:23:42;7.93;;;7.25;;
69937;SDS011;57248;47.320;15.998;2023-08-12T13:26:15;8.07;;;7.40;;
69937;SDS011;57248;47.320;15.998;2023-08-12T13:28:41;8.63;;;8.02;;
69937;SDS011;57248;47.320;15.998;2023-08-12T13:31:13;9.18;;;8.57;;
69937;SDS011;57248;47.320;15.998;2023-08-12T13:33:45;8.30;;;7.70;;
69937;SDS011;57248;47.320;15.998;2023-08-12T13:36:17;8.63;;;7.93;;
69937;SDS011;57248;47.320;15.998;2023-08-12T13:39:03;7.55;;;6.95;;
69937;SDS011;57248;47.320;15.998;2023-08-12T13:41:36;8.15;;;7.38;;
69937;SDS011;57248;47.320;15.998;2023-08-12T13:44:08;7.97;;;7.32;;
69937;SDS011;57248;47.320;15.998;2023-08-12T13:46:40;7.72;;;7.13;;
69937;SDS011;57248;47.320;15.998;2023-08-12T13:49:12;7.07;;;6.47;;
69937;SDS011;57248;47.320;15.998;2023-08-12T13:51:37;6.72;;;6.10;;
69937;SDS011;57248;47.320;15.998;2023-08-12T13:54:09;6.07;;;5.57;;
69937;SDS011;57248;47.320;15.998;2023-08-12T13:56:41;6.83;;;6.27;;
69937;SDS011;57248;47.320;15.998;2023-08-12T13:59:13;7.30;;;6.70;;
69937;SDS011;57248;47.320;15.998;2023-08-12T14:01:46;7.28;;;6.68;;
69937;SDS011;57248;47.320;15.998;2023-08-12T14:04:18;7.85;;;7.18;;
69937;SDS011;57248;47.320;15.998;2023-08-12T14:06:51;7.25;;;6.63;;
69937;SDS011;57248;47.320;15.998;2023-08-12T14:09:23;6.63;;;6.07;;
69937;SDS011;57248;47.320;15.998;2023-08-12T14:11:55;6.55;;;5.97;;
69937;SDS011;57248;47.320;15.998;2023-08-12T14:14:20;7.13;;;6.43;;
69937;SDS011;57248;47.320;15.998;2023-08-12T14:16:53;7.22;;;6.53;;
69937;SDS011;57248;47.320;15.998;2023-08-12T14:19:26;6.72;;;6.22;;
69937;SDS011;57248;47.320;15.998;2023-08-12T14:21:58;6.30;;;5.80;;
69937;SDS011;57248;47.320;15.998;2023-08-12T14:24:31;6.30;;;5.78;;
69937;SDS011;57248;47.320;15.998;2023-08-12T14:27:03;6.43;;;5.83;;
69937;SDS011;57248;47.320;15.998;2023-08-12T14:29:29;6.90;;;6.40;;
69937;SDS011;57248;47.320;15.998;2023-08-12T14:32:01;6.53;;;6.03;;
69937;SDS011;57248;47.320;15.998;2023-08-12T14:34:33;6.93;;;6.43;;
69937;SDS011;57248;47.320;15.998;2023-08-12T14:37:05;6.47;;;5.70;;
69937;SDS011;57248;47.320;15.998;2023-08-12T14:39:53;6.07;;;5.47;;
69937;SDS011;57248;47.320;15.998;2023-08-12T14:42:26;6.40;;;5.90;;
69937;SDS011;57248;47.320;15.998;2023-08-12T14:44:52;5.90;;;5.30;;
69937;SDS011;57248;47.320;15.998;2023-08-12T14:47:25;6.30;;;5.80;;
69937;SDS011;57248;47.320;15.998;2023-08-12T14:49:57;6.20;;;5.70;;
69937;SDS011;57248;47.320;15.998;2023-08-12T14:52:29;7.32;;;5.93;;
69937;SDS011;57248;47.320;15.998;2023-08-12T14:55:01;6.65;;;6.05;;
69937;SDS011;57248;47.320;15.998;2023-08-12T14:57:34;6.38;;;5.78;;
69937;SDS011;57248;47.320;15.998;2023-08-12T15:00:06;6.65;;;6.05;;
69937;SDS011;57248;47.320;15.998;2023-08-12T15:02:42;6.57;;;5.97;;
69937;SDS011;57248;47.320;15.998;2023-08-12T15:05:14;6.03;;;5.43;;
69937;SDS011;57248;47.320;15.998;2023-08-12T15:07:46;6.20;;;5.30;;
69937;SDS011;57248;47.320;15.998;2023-08-12T15:10:18;4.78;;;4.30;;